createdAt,value
2022-10-28T00:01:12.021Z,5.60
2022-10-28T00:03:43.717Z,5.93
2022-10-28T00:08:40.792Z,5.85
2022-10-28T00:11:14.870Z,5.65
2022-10-28T00:13:43.181Z,5.35
2022-10-28T00:16:18.684Z,5.60
2022-10-28T00:18:45.713Z,5.25
2022-10-28T00:21:17.443Z,5.95
2022-10-28T00:26:15.030Z,5.55
2022-10-28T00:28:43.232Z,5.45
2022-10-28T00:31:12.185Z,6.28
2022-10-28T00:33:38.685Z,6.03
2022-10-28T00:36:23.035Z,5.47
2022-10-28T00:38:51.463Z,5.85
2022-10-28T00:41:21.373Z,5.90
2022-10-28T00:43:54.795Z,6.10
2022-10-28T00:46:29.435Z,5.63
2022-10-28T00:49:02.467Z,6.07
2022-10-28T00:51:29.431Z,5.53
2022-10-28T00:53:56.449Z,5.57
2022-10-28T00:58:57.297Z,5.13
2022-10-28T01:01:23.988Z,5.72
2022-10-28T01:03:50.886Z,4.60
2022-10-28T01:06:17.426Z,5.63
2022-10-28T01:08:43.876Z,4.80
2022-10-28T01:11:25.673Z,5.20
2022-10-28T01:16:44.710Z,4.60
2022-10-28T01:19:25.016Z,4.43
2022-10-28T01:22:20.751Z,4.80
2022-10-28T01:24:56.756Z,4.60
2022-10-28T01:27:45.098Z,4.97
2022-10-28T01:30:17.213Z,4.82
2022-10-28T01:33:30.131Z,5.05
2022-10-28T01:36:24.811Z,5.07
2022-10-28T01:39:00.110Z,4.90
2022-10-28T01:41:48.176Z,5.00
2022-10-28T01:44:26.777Z,4.72
2022-10-28T01:47:02.381Z,4.90
2022-10-28T01:49:31.326Z,4.93
2022-10-28T01:52:03.084Z,5.10
2022-10-28T01:54:31.719Z,5.03
2022-10-28T01:56:58.813Z,5.03
2022-10-28T01:59:28.411Z,4.50
2022-10-28T02:01:55.739Z,4.72
2022-10-28T02:04:22.364Z,4.80
2022-10-28T02:06:53.357Z,4.75
2022-10-28T02:09:44.743Z,4.50
2022-10-28T02:12:22.069Z,4.50
2022-10-28T02:14:59.182Z,4.40
2022-10-28T02:17:49.355Z,4.80
2022-10-28T02:20:34.670Z,4.88
2022-10-28T02:23:05.485Z,4.82
2022-10-28T02:25:52.119Z,4.40
2022-10-28T02:28:40.521Z,4.65
2022-10-28T02:31:15.395Z,4.70
2022-10-28T02:33:43.759Z,4.30
2022-10-28T02:36:15.525Z,4.28
2022-10-28T02:38:54.622Z,4.60
2022-10-28T02:41:31.723Z,5.05
2022-10-28T02:44:03.026Z,4.28
2022-10-28T02:46:30.538Z,4.50
2022-10-28T02:49:00.687Z,4.80
2022-10-28T02:51:35.070Z,4.03
2022-10-28T02:54:07.337Z,4.65
2022-10-28T02:56:38.860Z,4.75
2022-10-28T02:59:11.069Z,4.40
2022-10-28T03:01:37.949Z,4.80
2022-10-28T03:04:05.041Z,4.70
2022-10-28T03:06:31.604Z,4.47
2022-10-28T03:08:58.090Z,4.50
2022-10-28T03:11:24.545Z,4.53
2022-10-28T03:13:51.192Z,4.28
2022-10-28T03:16:17.692Z,4.28
2022-10-28T03:18:44.250Z,4.18
2022-10-28T03:21:10.691Z,4.63
2022-10-28T03:23:37.174Z,4.45
2022-10-28T03:26:03.710Z,4.45
2022-10-28T03:28:30.179Z,4.50
2022-10-28T03:30:56.678Z,4.38
2022-10-28T03:33:23.141Z,4.63
2022-10-28T03:35:49.665Z,4.35
2022-10-28T03:38:16.177Z,4.78
2022-10-28T03:40:42.673Z,4.72
2022-10-28T03:43:09.255Z,4.45
2022-10-28T03:45:35.697Z,4.68
2022-10-28T03:48:02.152Z,4.15
2022-10-28T03:50:28.640Z,4.38
2022-10-28T03:52:55.128Z,4.50
2022-10-28T03:55:23.732Z,4.60
2022-10-28T03:57:50.249Z,4.03
2022-10-28T04:00:16.796Z,4.00
2022-10-28T04:02:43.339Z,4.35
2022-10-28T04:05:09.816Z,4.25
2022-10-28T04:07:36.477Z,4.40
2022-10-28T04:10:02.988Z,4.40
2022-10-28T04:12:29.462Z,4.00
2022-10-28T04:14:56.007Z,3.97
2022-10-28T04:17:22.450Z,4.10
2022-10-28T04:19:49.142Z,4.70
2022-10-28T04:22:15.701Z,4.75
2022-10-28T04:24:42.176Z,4.57
2022-10-28T04:27:08.806Z,4.78
2022-10-28T04:29:36.137Z,5.13
2022-10-28T04:32:02.818Z,4.75
2022-10-28T04:34:29.520Z,4.50
2022-10-28T04:36:56.040Z,4.53
2022-10-28T04:39:22.516Z,4.65
2022-10-28T04:41:49.086Z,4.88
2022-10-28T04:44:15.575Z,4.93
2022-10-28T04:46:42.499Z,4.95
2022-10-28T04:49:09.926Z,4.57
2022-10-28T04:51:36.467Z,4.30
2022-10-28T04:54:03.296Z,4.75
2022-10-28T04:56:31.085Z,4.18
2022-10-28T04:58:57.538Z,4.13
2022-10-28T05:01:24.223Z,4.03
2022-10-28T05:03:50.726Z,4.47
2022-10-28T05:06:17.169Z,4.28
2022-10-28T05:08:43.723Z,4.18
2022-10-28T05:11:10.167Z,4.50
2022-10-28T05:13:36.656Z,4.82
2022-10-28T05:16:03.383Z,4.78
2022-10-28T05:18:29.865Z,5.10
2022-10-28T05:20:56.909Z,4.38
2022-10-28T05:23:27.135Z,4.35
2022-10-28T05:28:21.927Z,4.55
2022-10-28T05:30:48.486Z,4.28
2022-10-28T05:33:15.018Z,4.60
2022-10-28T05:35:41.513Z,4.35
2022-10-28T05:38:08.073Z,4.60
2022-10-28T05:40:34.674Z,4.47
2022-10-28T05:43:01.726Z,4.57
2022-10-28T05:48:00.020Z,5.22
2022-10-28T05:50:26.623Z,5.68
2022-10-28T05:52:56.369Z,6.10
2022-10-28T05:55:27.840Z,6.63
2022-10-28T05:57:55.536Z,6.63
2022-10-28T06:00:24.377Z,8.52
2022-10-28T06:02:51.446Z,7.88
2022-10-28T06:05:18.248Z,6.95
2022-10-28T06:07:44.715Z,7.28
2022-10-28T06:10:11.885Z,8.27
2022-10-28T06:12:36.967Z,7.72
2022-10-28T06:15:03.866Z,8.80
2022-10-28T06:17:30.717Z,8.77
2022-10-28T06:19:57.212Z,7.32
2022-10-28T06:22:23.748Z,8.20
2022-10-28T06:24:50.256Z,7.57
2022-10-28T06:27:16.729Z,6.72
2022-10-28T06:29:43.215Z,7.32
2022-10-28T06:32:09.812Z,7.40
2022-10-28T06:34:37.760Z,6.70
2022-10-28T06:37:05.636Z,5.90
2022-10-28T06:39:32.662Z,5.55
2022-10-28T06:41:59.478Z,5.97
2022-10-28T06:44:26.076Z,5.40
2022-10-28T06:46:54.095Z,5.15
2022-10-28T06:49:20.594Z,5.18
2022-10-28T06:51:47.120Z,5.20
2022-10-28T06:54:13.594Z,6.00
2022-10-28T06:56:40.073Z,4.65
2022-10-28T06:59:07.661Z,5.32
2022-10-28T07:01:34.184Z,4.88
2022-10-28T07:04:01.004Z,5.32
2022-10-28T07:06:27.459Z,5.13
2022-10-28T07:08:53.909Z,5.07
2022-10-28T07:11:20.399Z,4.78
2022-10-28T07:13:48.968Z,4.97
2022-10-28T07:16:15.654Z,5.15
2022-10-28T07:18:42.270Z,6.75
2022-10-28T07:21:08.726Z,6.95
2022-10-28T07:23:35.262Z,6.78
2022-10-28T07:26:01.928Z,6.90
2022-10-28T07:28:28.683Z,6.57
2022-10-28T07:30:55.268Z,7.00
2022-10-28T07:33:21.803Z,7.30
2022-10-28T07:35:48.267Z,6.95
2022-10-28T07:38:15.023Z,6.50
2022-10-28T07:40:41.654Z,6.95
2022-10-28T07:43:08.125Z,6.40
2022-10-28T07:45:35.605Z,6.85
2022-10-28T07:48:02.589Z,6.35
2022-10-28T07:50:29.110Z,6.20
2022-10-28T07:52:56.151Z,6.20
2022-10-28T07:55:23.187Z,6.10
2022-10-28T07:57:49.654Z,5.97
2022-10-28T08:00:16.584Z,5.90
2022-10-28T08:02:43.194Z,6.10
2022-10-28T08:05:09.715Z,5.50
2022-10-28T08:07:38.576Z,5.93
2022-10-28T08:10:06.811Z,5.53
2022-10-28T08:12:33.371Z,5.38
2022-10-28T08:14:59.886Z,4.97
2022-10-28T08:17:26.310Z,5.00
2022-10-28T08:19:52.778Z,4.50
2022-10-28T08:22:19.297Z,4.72
2022-10-28T08:24:45.789Z,4.43
2022-10-28T08:27:12.391Z,4.50
2022-10-28T08:29:38.946Z,4.25
2022-10-28T08:32:08.262Z,4.28
2022-10-28T08:34:37.959Z,4.00
2022-10-28T08:37:07.516Z,3.88
2022-10-28T08:39:34.077Z,3.80
2022-10-28T08:42:38.973Z,4.00
2022-10-28T08:45:15.777Z,3.65
2022-10-28T08:47:45.475Z,3.58
2022-10-28T08:50:18.285Z,3.67
2022-10-28T08:52:57.412Z,3.40
2022-10-28T08:55:36.347Z,3.47
2022-10-28T08:58:08.442Z,3.40
2022-10-28T09:00:35.151Z,3.38
2022-10-28T09:03:35.568Z,3.92
2022-10-28T09:06:06.380Z,3.92
2022-10-28T09:08:40.817Z,4.07
2022-10-28T09:11:10.397Z,3.65
2022-10-28T09:14:04.019Z,3.80
2022-10-28T09:16:41.260Z,3.65
2022-10-28T09:19:33.854Z,3.03
2022-10-28T09:22:12.285Z,3.70
2022-10-28T09:24:48.497Z,3.78
2022-10-28T09:27:24.031Z,3.55
2022-10-28T09:30:02.897Z,3.65
2022-10-28T09:32:34.692Z,3.60
2022-10-28T09:35:13.579Z,3.72
2022-10-28T09:37:47.904Z,3.47
2022-10-28T09:40:24.326Z,3.45
2022-10-28T09:43:07.165Z,3.72
2022-10-28T09:45:36.217Z,3.88
2022-10-28T09:48:23.934Z,3.58
2022-10-28T09:50:52.433Z,3.80
2022-10-28T09:54:02.919Z,3.53
2022-10-28T09:56:30.246Z,3.92
2022-10-28T09:59:01.296Z,3.50
2022-10-28T10:01:33.371Z,3.85
2022-10-28T10:03:59.925Z,3.28
2022-10-28T10:06:31.688Z,3.90
2022-10-28T10:08:58.312Z,3.72
2022-10-28T10:11:33.484Z,3.92
2022-10-28T10:14:05.282Z,4.07
2022-10-28T10:16:42.607Z,4.28
2022-10-28T10:19:11.000Z,4.20
2022-10-28T10:21:46.959Z,4.57
2022-10-28T10:24:35.316Z,4.68
2022-10-28T10:27:11.108Z,4.30
2022-10-28T10:29:44.267Z,4.40
2022-10-28T10:32:18.376Z,4.32
2022-10-28T10:34:50.279Z,4.47
2022-10-28T10:37:18.911Z,5.30
2022-10-28T10:39:45.413Z,4.70
2022-10-28T10:42:16.457Z,4.90
2022-10-28T10:44:43.360Z,4.85
2022-10-28T10:47:17.078Z,4.68
2022-10-28T10:49:43.561Z,4.45
2022-10-28T10:52:23.695Z,4.40
2022-10-28T10:54:59.351Z,6.80
2022-10-28T10:57:26.370Z,4.60
2022-10-28T10:59:54.481Z,4.93
2022-10-28T11:02:34.861Z,5.13
2022-10-28T11:05:07.454Z,4.40
2022-10-28T11:07:34.094Z,4.60
2022-10-28T11:10:00.864Z,4.03
2022-10-28T11:12:35.199Z,4.22
2022-10-28T11:15:08.707Z,4.60
2022-10-28T11:17:35.276Z,3.95
2022-10-28T11:20:22.986Z,4.55
2022-10-28T11:23:03.671Z,4.60
2022-10-28T11:25:36.392Z,4.60
2022-10-28T11:28:13.664Z,4.13
2022-10-28T11:30:43.215Z,4.63
2022-10-28T11:33:30.500Z,5.05
2022-10-28T11:36:23.443Z,4.65
2022-10-28T11:39:06.203Z,4.30
2022-10-28T11:41:44.419Z,4.43
2022-10-28T11:44:30.689Z,4.90
2022-10-28T11:47:06.926Z,4.65
2022-10-28T11:49:51.668Z,4.47
2022-10-28T11:52:24.768Z,5.15
2022-10-28T11:55:03.162Z,4.63
2022-10-28T11:57:42.649Z,5.07
2022-10-28T12:00:42.013Z,5.28
2022-10-28T12:03:23.774Z,5.07
2022-10-28T12:05:55.723Z,4.93
2022-10-28T12:08:56.453Z,4.85
2022-10-28T12:11:39.231Z,5.13
2022-10-28T12:14:24.230Z,4.57
2022-10-28T12:16:58.590Z,4.82
2022-10-28T12:19:32.421Z,4.68
2022-10-28T12:22:11.816Z,5.22
2022-10-28T12:24:41.229Z,4.63
2022-10-28T12:27:17.081Z,4.65
2022-10-28T12:29:49.138Z,4.80
2022-10-28T12:32:22.470Z,4.65
2022-10-28T12:34:58.039Z,4.90
2022-10-28T12:37:42.155Z,4.60
2022-10-28T12:40:16.355Z,5.40
2022-10-28T12:42:50.549Z,5.03
2022-10-28T12:45:18.769Z,4.53
2022-10-28T12:47:55.003Z,4.80
2022-10-28T12:50:30.088Z,5.85
2022-10-28T12:53:02.733Z,4.63
2022-10-28T12:55:39.995Z,5.45
2022-10-28T12:58:15.550Z,4.32
2022-10-28T13:00:45.196Z,5.03
2022-10-28T13:03:13.510Z,5.18
2022-10-28T13:05:48.448Z,4.82
2022-10-28T13:08:29.881Z,4.65
2022-10-28T13:11:20.585Z,5.55
2022-10-28T13:13:58.949Z,4.85
2022-10-28T13:16:46.167Z,5.05
2022-10-28T13:19:40.460Z,5.07
2022-10-28T13:22:44.961Z,5.20
2022-10-28T13:25:18.290Z,4.75
2022-10-28T13:27:44.941Z,4.60
2022-10-28T13:30:16.755Z,4.38
2022-10-28T13:32:43.608Z,4.97
2022-10-28T13:35:13.286Z,4.85
2022-10-28T13:37:40.162Z,5.05
2022-10-28T13:40:11.365Z,4.88
2022-10-28T13:42:48.186Z,5.68
2022-10-28T13:45:53.676Z,5.18
2022-10-28T13:48:29.601Z,5.18
2022-10-28T13:51:13.867Z,5.20
2022-10-28T13:53:46.127Z,4.93
2022-10-28T13:56:21.786Z,5.60
2022-10-28T13:59:14.129Z,5.15
2022-10-28T14:01:43.760Z,5.18
2022-10-28T14:04:29.146Z,5.18
2022-10-28T14:07:17.693Z,4.70
2022-10-28T14:09:44.594Z,5.13
2022-10-28T14:12:19.075Z,4.65
2022-10-28T14:15:05.013Z,4.78
2022-10-28T14:17:40.092Z,4.93
2022-10-28T14:20:38.763Z,5.18
2022-10-28T14:23:20.750Z,4.85
2022-10-28T14:25:50.237Z,5.05
2022-10-28T14:28:31.604Z,5.43
2022-10-28T14:31:11.385Z,5.13
2022-10-28T14:33:38.723Z,4.95
2022-10-28T14:36:17.344Z,4.88
2022-10-28T14:39:21.115Z,4.90
2022-10-28T14:41:59.867Z,4.35
2022-10-28T14:44:41.747Z,5.70
2022-10-28T14:48:05.355Z,4.43
2022-10-28T14:50:39.993Z,4.65
2022-10-28T14:53:23.087Z,4.75
2022-10-28T14:55:55.983Z,4.63
2022-10-28T14:58:24.562Z,4.82
2022-10-28T15:01:18.424Z,5.50
2022-10-28T15:03:51.281Z,5.07
2022-10-28T15:06:28.419Z,4.60
2022-10-28T15:08:54.921Z,4.70
2022-10-28T15:11:21.906Z,5.10
2022-10-28T15:14:13.270Z,4.38
2022-10-28T15:16:48.917Z,4.97
2022-10-28T15:19:22.210Z,4.90
2022-10-28T15:22:12.517Z,4.22
2022-10-28T15:24:43.025Z,4.45
2022-10-28T15:27:13.933Z,4.40
2022-10-28T15:29:41.876Z,4.28
2022-10-28T15:32:13.992Z,5.00
2022-10-28T15:34:41.479Z,4.28
2022-10-28T15:37:08.571Z,5.18
2022-10-28T15:39:35.788Z,4.72
2022-10-28T15:42:02.631Z,4.55
2022-10-28T15:44:39.090Z,4.20
2022-10-28T15:47:23.640Z,4.90
2022-10-28T15:50:04.927Z,4.30
2022-10-28T15:52:36.014Z,4.53
2022-10-28T15:55:35.513Z,3.92
2022-10-28T15:58:13.753Z,4.43
2022-10-28T16:00:56.954Z,3.83
2022-10-28T16:03:46.262Z,4.18
2022-10-28T16:06:30.839Z,4.00
2022-10-28T16:09:20.701Z,4.00
2022-10-28T16:11:50.067Z,3.60
2022-10-28T16:14:37.931Z,4.13
2022-10-28T16:17:15.515Z,3.63
2022-10-28T16:19:59.764Z,3.40
2022-10-28T16:22:27.450Z,3.50
2022-10-28T16:24:54.555Z,3.60
2022-10-28T16:27:26.664Z,3.70
2022-10-28T16:29:53.617Z,3.50
2022-10-28T16:32:27.871Z,3.60
2022-10-28T16:34:56.476Z,3.00
2022-10-28T16:37:25.959Z,3.45
2022-10-28T16:39:52.573Z,3.38
2022-10-28T16:42:20.434Z,3.28
2022-10-28T16:44:47.150Z,3.67
2022-10-28T16:47:15.535Z,3.67
2022-10-28T16:49:43.271Z,3.83
2022-10-28T16:52:23.513Z,4.20
2022-10-28T16:54:51.057Z,4.32
2022-10-28T16:57:19.741Z,4.75
2022-10-28T16:59:46.773Z,5.70
2022-10-28T17:02:16.111Z,6.00
2022-10-28T17:04:42.716Z,5.70
2022-10-28T17:07:13.553Z,6.35
2022-10-28T17:09:39.986Z,5.60
2022-10-28T17:12:06.716Z,6.03
2022-10-28T17:14:33.225Z,5.32
2022-10-28T17:16:59.747Z,5.85
2022-10-28T17:19:26.206Z,5.75
2022-10-28T17:21:52.787Z,6.38
2022-10-28T17:24:20.345Z,6.35
2022-10-28T17:26:47.321Z,6.20
2022-10-28T17:29:14.042Z,6.03
2022-10-28T17:31:40.561Z,5.80
2022-10-28T17:34:07.096Z,6.30
2022-10-28T17:36:33.864Z,6.53
2022-10-28T17:39:00.446Z,6.05
2022-10-28T17:41:27.163Z,6.38
2022-10-28T17:43:54.471Z,6.30
2022-10-28T17:46:21.596Z,6.10
2022-10-28T17:48:48.532Z,6.60
2022-10-28T17:51:15.415Z,6.47
2022-10-28T17:53:42.110Z,6.50
2022-10-28T17:56:09.065Z,6.03
2022-10-28T17:58:35.921Z,6.53
2022-10-28T18:01:07.380Z,6.45
2022-10-28T18:03:38.387Z,6.75
2022-10-28T18:06:07.509Z,6.40
2022-10-28T18:08:36.164Z,6.15
2022-10-28T18:11:03.361Z,5.97
2022-10-28T18:13:31.698Z,7.07
2022-10-28T18:16:05.483Z,7.28
2022-10-28T18:18:32.323Z,7.07
2022-10-28T18:20:59.166Z,7.25
2022-10-28T18:23:26.338Z,7.28
2022-10-28T18:25:59.721Z,7.13
2022-10-28T18:28:27.249Z,7.20
2022-10-28T18:30:53.783Z,7.50
2022-10-28T18:33:20.326Z,7.65
2022-10-28T18:38:18.255Z,7.40
2022-10-28T18:40:48.564Z,6.97
2022-10-28T18:43:15.142Z,7.35
2022-10-28T18:45:41.937Z,6.70
2022-10-28T18:48:08.472Z,7.07
2022-10-28T18:50:34.990Z,7.10
2022-10-28T18:53:02.510Z,7.15
2022-10-28T18:55:29.065Z,6.95
2022-10-28T18:57:55.633Z,7.07
2022-10-28T19:00:22.452Z,7.28
2022-10-28T19:02:49.271Z,6.65
2022-10-28T19:05:16.138Z,6.80
2022-10-28T19:07:42.742Z,6.50
2022-10-28T19:10:09.525Z,6.38
2022-10-28T19:12:40.873Z,6.50
2022-10-28T19:15:10.841Z,6.88
2022-10-28T19:17:37.478Z,7.03
2022-10-28T19:20:04.229Z,6.75
2022-10-28T19:22:30.685Z,6.78
2022-10-28T19:24:57.207Z,6.50
2022-10-28T19:27:23.844Z,6.90
2022-10-28T19:29:50.574Z,6.38
2022-10-28T19:32:17.107Z,6.47
2022-10-28T19:34:43.605Z,6.70
2022-10-28T19:37:10.077Z,5.80
2022-10-28T19:39:37.154Z,6.25
2022-10-28T19:42:03.823Z,6.57
2022-10-28T19:44:30.297Z,6.32
2022-10-28T19:46:57.007Z,6.57
2022-10-28T19:49:26.955Z,6.50
2022-10-28T19:51:57.573Z,6.15
2022-10-28T19:54:24.084Z,6.15
2022-10-28T19:56:50.682Z,7.25
2022-10-28T19:59:17.523Z,6.18
2022-10-28T20:01:44.276Z,5.65
2022-10-28T20:04:11.003Z,6.07
2022-10-28T20:06:39.562Z,6.00
2022-10-28T20:09:06.882Z,5.80
2022-10-28T20:11:35.015Z,5.75
2022-10-28T20:14:04.233Z,5.43
2022-10-28T20:16:31.855Z,6.13
2022-10-28T20:18:58.815Z,5.57
2022-10-28T20:21:28.756Z,5.25
2022-10-28T20:23:56.224Z,6.07
2022-10-28T20:26:30.711Z,5.82
2022-10-28T20:28:58.545Z,5.93
2022-10-28T20:31:27.500Z,5.60
2022-10-28T20:33:59.697Z,5.22
2022-10-28T20:36:34.940Z,5.65
2022-10-28T20:39:05.274Z,5.38
2022-10-28T20:41:33.709Z,5.78
2022-10-28T20:44:00.273Z,5.57
2022-10-28T20:46:27.098Z,5.55
2022-10-28T20:48:56.893Z,5.50
2022-10-28T20:51:25.593Z,5.35
2022-10-28T20:53:52.135Z,5.50
2022-10-28T20:56:24.016Z,5.50
2022-10-28T20:58:51.096Z,4.95
2022-10-28T21:01:20.589Z,5.65
2022-10-28T21:03:47.897Z,5.55
2022-10-28T21:06:16.238Z,5.60
2022-10-28T21:08:43.316Z,6.05
2022-10-28T21:11:11.924Z,5.30
2022-10-28T21:13:38.505Z,5.60
2022-10-28T21:16:06.690Z,5.22
2022-10-28T21:18:33.561Z,5.50
2022-10-28T21:21:00.366Z,5.07
2022-10-28T21:23:28.060Z,5.30
2022-10-28T21:25:56.118Z,5.55
2022-10-28T21:28:23.192Z,5.45
2022-10-28T21:30:49.982Z,4.97
2022-10-28T21:33:17.988Z,5.03
2022-10-28T21:35:45.597Z,5.07
2022-10-28T21:38:12.970Z,5.00
2022-10-28T21:40:39.477Z,4.90
2022-10-28T21:43:06.876Z,4.93
2022-10-28T21:45:33.392Z,5.03
2022-10-28T21:47:59.904Z,5.35
2022-10-28T21:50:26.422Z,4.82
2022-10-28T21:52:52.958Z,5.18
2022-10-28T21:55:41.047Z,5.25
2022-10-28T21:58:06.157Z,4.75
2022-10-28T22:00:32.668Z,4.70
2022-10-28T22:02:59.244Z,5.07
2022-10-28T22:05:25.778Z,4.63
2022-10-28T22:07:52.276Z,5.15
2022-10-28T22:10:18.805Z,4.95
2022-10-28T22:12:47.344Z,4.65
2022-10-28T22:15:13.897Z,4.97
2022-10-28T22:17:40.449Z,5.00
2022-10-28T22:20:07.650Z,4.97
2022-10-28T22:22:34.341Z,4.22
2022-10-28T22:25:02.805Z,5.00
2022-10-28T22:27:32.632Z,5.00
2022-10-28T22:29:59.101Z,4.50
2022-10-28T22:32:25.553Z,4.80
2022-10-28T22:34:52.030Z,5.10
2022-10-28T22:37:18.725Z,4.50
2022-10-28T22:39:45.220Z,4.72
2022-10-28T22:42:11.679Z,4.80
2022-10-28T22:44:38.240Z,5.00
2022-10-28T22:47:04.802Z,4.50
2022-10-28T22:49:31.274Z,5.25
2022-10-28T22:51:57.748Z,4.72
2022-10-28T22:54:24.205Z,4.80
2022-10-28T22:56:50.786Z,4.75
2022-10-28T22:59:17.306Z,4.82
2022-10-28T23:01:43.893Z,4.40
2022-10-28T23:04:11.490Z,5.00
2022-10-28T23:06:38.270Z,4.97
2022-10-28T23:09:04.789Z,4.63
2022-10-28T23:11:31.286Z,5.15
2022-10-28T23:13:57.797Z,5.32
2022-10-28T23:16:24.661Z,4.80
2022-10-28T23:18:55.255Z,5.03
2022-10-28T23:21:25.733Z,4.70
2022-10-28T23:23:55.288Z,4.63
2022-10-28T23:26:22.248Z,4.63
2022-10-28T23:28:53.397Z,4.47
2022-10-28T23:31:20.379Z,3.70
2022-10-28T23:33:46.917Z,4.63
2022-10-28T23:36:14.331Z,4.75
2022-10-28T23:38:41.270Z,4.13
2022-10-28T23:41:10.198Z,4.10
2022-10-28T23:43:37.780Z,4.43
2022-10-28T23:46:04.572Z,4.43
2022-10-28T23:48:31.162Z,4.45
2022-10-28T23:50:57.994Z,4.65
2022-10-28T23:53:24.782Z,4.72
2022-10-28T23:55:51.649Z,3.97
2022-10-28T23:58:19.608Z,4.20
